createdAt,value
2023-05-15T00:00:16.101Z,3.80
2023-05-15T00:02:44.975Z,3.70
2023-05-15T00:05:13.064Z,3.53
2023-05-15T00:07:40.900Z,3.53
2023-05-15T00:10:08.687Z,3.53
2023-05-15T00:12:36.263Z,3.53
2023-05-15T00:15:03.514Z,4.40
2023-05-15T00:17:30.329Z,4.30
2023-05-15T00:19:59.130Z,3.70
2023-05-15T00:22:26.236Z,3.47
2023-05-15T00:24:53.227Z,3.50
2023-05-15T00:27:19.995Z,3.90
2023-05-15T00:29:46.816Z,3.47
2023-05-15T00:32:13.565Z,3.77
2023-05-15T00:34:40.438Z,3.10
2023-05-15T00:37:08.493Z,3.40
2023-05-15T00:39:36.192Z,3.87
2023-05-15T00:42:07.818Z,3.17
2023-05-15T00:44:35.741Z,3.20
2023-05-15T00:47:03.958Z,3.40
2023-05-15T00:49:34.626Z,3.30
2023-05-15T00:52:04.404Z,3.40
2023-05-15T00:54:31.336Z,3.13
2023-05-15T00:56:59.794Z,3.40
2023-05-15T00:59:28.734Z,3.60
2023-05-15T01:01:55.864Z,3.50
2023-05-15T01:04:22.845Z,3.00
2023-05-15T01:06:53.816Z,3.03
2023-05-15T01:09:23.598Z,3.47
2023-05-15T01:11:53.674Z,4.00
2023-05-15T01:14:20.576Z,3.63
2023-05-15T01:16:47.762Z,4.27
2023-05-15T01:19:15.126Z,4.63
2023-05-15T01:22:00.062Z,4.40
2023-05-15T01:24:29.770Z,3.80
2023-05-15T01:27:15.042Z,4.60
2023-05-15T01:29:50.173Z,4.73
2023-05-15T01:32:24.335Z,4.70
2023-05-15T01:35:16.360Z,4.80
2023-05-15T01:37:50.163Z,5.73
2023-05-15T01:40:19.827Z,6.60
2023-05-15T01:42:56.117Z,5.67
2023-05-15T01:45:25.309Z,5.37
2023-05-15T01:47:54.407Z,6.17
2023-05-15T01:50:22.118Z,6.10
2023-05-15T01:52:58.689Z,6.70
2023-05-15T01:55:29.330Z,5.70
2023-05-15T01:57:59.812Z,5.70
2023-05-15T02:00:29.644Z,6.70
2023-05-15T02:02:57.824Z,5.70
2023-05-15T02:05:26.420Z,6.07
2023-05-15T02:07:54.345Z,5.50
2023-05-15T02:10:22.248Z,5.10
2023-05-15T02:12:50.316Z,5.37
2023-05-15T02:15:18.281Z,5.33
2023-05-15T02:17:49.446Z,5.57
2023-05-15T02:20:16.355Z,5.40
2023-05-15T02:22:43.802Z,5.40
2023-05-15T02:25:10.654Z,5.10
2023-05-15T02:27:54.066Z,6.57
2023-05-15T02:30:30.041Z,5.67
2023-05-15T02:33:22.854Z,4.80
2023-05-15T02:36:07.281Z,5.80
2023-05-15T02:38:46.989Z,6.10
2023-05-15T02:41:15.797Z,7.17
2023-05-15T02:43:44.440Z,6.87
2023-05-15T02:46:11.907Z,7.00
2023-05-15T02:48:40.934Z,6.23
2023-05-15T02:51:08.341Z,6.03
2023-05-15T02:53:40.797Z,6.97
2023-05-15T02:56:08.403Z,6.20
2023-05-15T02:58:36.104Z,6.17
2023-05-15T03:01:03.473Z,6.00
2023-05-15T03:03:30.707Z,6.10
2023-05-15T03:05:57.547Z,5.60
2023-05-15T03:08:24.290Z,6.63
2023-05-15T03:10:51.199Z,5.00
2023-05-15T03:13:18.083Z,6.30
2023-05-15T03:15:47.947Z,5.97
2023-05-15T03:18:17.315Z,5.93
2023-05-15T03:20:47.225Z,5.40
2023-05-15T03:23:14.009Z,5.40
2023-05-15T03:25:40.781Z,6.07
2023-05-15T03:28:07.871Z,6.47
2023-05-15T03:30:34.623Z,5.90
2023-05-15T03:33:04.936Z,6.63
2023-05-15T03:35:32.451Z,5.50
2023-05-15T03:37:59.758Z,5.73
2023-05-15T03:40:26.512Z,5.83
2023-05-15T03:42:53.741Z,6.10
2023-05-15T03:45:21.196Z,6.10
2023-05-15T03:47:48.929Z,5.40
2023-05-15T03:50:16.495Z,5.30
2023-05-15T03:52:43.869Z,6.33
2023-05-15T03:55:10.841Z,6.40
2023-05-15T03:57:37.808Z,6.00
2023-05-15T04:00:10.047Z,5.90
2023-05-15T04:02:41.025Z,6.27
2023-05-15T04:05:09.095Z,6.17
2023-05-15T04:07:37.058Z,5.97
2023-05-15T04:10:04.243Z,6.40
2023-05-15T04:12:35.281Z,6.30
2023-05-15T04:15:14.384Z,6.00
2023-05-15T04:17:41.372Z,5.40
2023-05-15T04:20:09.228Z,6.00
2023-05-15T04:22:36.015Z,5.70
2023-05-15T04:25:03.053Z,4.90
2023-05-15T04:27:29.929Z,5.37
2023-05-15T04:29:56.706Z,5.17
2023-05-15T04:32:23.901Z,5.70
2023-05-15T04:34:50.726Z,5.70
2023-05-15T04:37:17.581Z,6.10
2023-05-15T04:39:44.360Z,6.43
2023-05-15T04:42:11.468Z,5.70
2023-05-15T04:44:38.183Z,6.83
2023-05-15T04:47:05.179Z,6.60
2023-05-15T04:49:31.995Z,6.87
2023-05-15T04:51:59.090Z,6.37
2023-05-15T04:54:25.918Z,5.87
2023-05-15T04:56:52.843Z,5.10
2023-05-15T04:59:19.587Z,5.67
2023-05-15T05:01:46.494Z,6.07
2023-05-15T05:04:13.384Z,6.10
2023-05-15T05:06:40.198Z,5.60
2023-05-15T05:09:06.942Z,6.53
2023-05-15T05:11:34.395Z,7.00
2023-05-15T05:14:01.180Z,5.63
2023-05-15T05:16:28.479Z,5.37
2023-05-15T05:18:55.481Z,6.80
2023-05-15T05:21:22.427Z,5.80
2023-05-15T05:23:49.148Z,6.83
2023-05-15T05:26:15.937Z,6.50
2023-05-15T05:28:42.720Z,7.10
2023-05-15T05:31:09.575Z,7.93
2023-05-15T05:33:36.346Z,6.80
2023-05-15T05:36:03.166Z,7.70
2023-05-15T05:38:29.939Z,7.93
2023-05-15T05:40:56.704Z,7.60
2023-05-15T05:43:25.416Z,7.77
2023-05-15T05:45:52.830Z,7.57
2023-05-15T05:48:19.663Z,7.70
2023-05-15T05:50:46.479Z,8.47
2023-05-15T05:53:13.812Z,10.83
2023-05-15T05:55:40.937Z,9.97
2023-05-15T05:58:14.758Z,10.40
2023-05-15T06:00:51.279Z,10.50
2023-05-15T06:03:18.306Z,9.87
2023-05-15T06:05:46.121Z,8.40
2023-05-15T06:08:13.050Z,9.37
2023-05-15T06:10:40.024Z,9.03
2023-05-15T06:13:06.911Z,8.17
2023-05-15T06:15:33.918Z,9.07
2023-05-15T06:18:00.768Z,7.77
2023-05-15T06:20:27.705Z,7.37
2023-05-15T06:22:55.585Z,8.97
2023-05-15T06:25:22.422Z,7.40
2023-05-15T06:27:49.406Z,7.10
2023-05-15T06:30:16.318Z,6.97
2023-05-15T06:32:43.454Z,8.10
2023-05-15T06:35:11.316Z,6.90
2023-05-15T06:37:38.391Z,6.97
2023-05-15T06:40:06.336Z,7.50
2023-05-15T06:42:33.313Z,7.90
2023-05-15T06:45:00.836Z,7.40
2023-05-15T06:47:27.735Z,7.90
2023-05-15T06:49:55.556Z,7.67
2023-05-15T06:52:22.488Z,8.30
2023-05-15T06:54:49.440Z,7.30
2023-05-15T06:57:16.260Z,7.07
2023-05-15T06:59:43.219Z,8.00
2023-05-15T07:02:10.101Z,6.77
2023-05-15T07:04:37.373Z,6.87
2023-05-15T07:07:04.324Z,6.90
2023-05-15T07:09:31.187Z,7.87
2023-05-15T07:11:57.977Z,7.37
2023-05-15T07:14:25.297Z,7.30
2023-05-15T07:16:52.574Z,6.93
2023-05-15T07:19:22.559Z,7.10
2023-05-15T07:21:49.332Z,7.03
2023-05-15T07:24:16.096Z,8.37
2023-05-15T07:26:56.956Z,6.40
2023-05-15T07:29:24.892Z,6.90
2023-05-15T07:31:51.696Z,7.20
2023-05-15T07:34:18.483Z,7.07
2023-05-15T07:36:45.362Z,6.57
2023-05-15T07:39:12.311Z,5.73
2023-05-15T07:41:39.242Z,5.43
2023-05-15T07:44:06.445Z,5.50
2023-05-15T07:46:35.129Z,3.80
2023-05-15T07:49:02.217Z,5.63
2023-05-15T07:51:29.492Z,5.80
2023-05-15T07:53:56.246Z,5.00
2023-05-15T07:56:24.112Z,5.17
2023-05-15T07:58:50.853Z,4.93
2023-05-15T08:01:18.062Z,4.60
2023-05-15T08:03:44.989Z,4.80
2023-05-15T08:06:11.808Z,4.77
2023-05-15T08:08:38.665Z,4.87
2023-05-15T08:11:06.022Z,5.00
2023-05-15T08:13:32.823Z,4.30
2023-05-15T08:15:59.646Z,4.90
2023-05-15T08:18:26.409Z,4.87
2023-05-15T08:20:53.295Z,5.20
2023-05-15T08:23:20.277Z,4.50
2023-05-15T08:25:47.247Z,4.93
2023-05-15T08:28:14.076Z,4.60
2023-05-15T08:30:40.916Z,4.70
2023-05-15T08:33:07.742Z,4.10
2023-05-15T08:35:34.622Z,4.30
2023-05-15T08:38:01.385Z,4.60
2023-05-15T08:43:03.460Z,4.93
2023-05-15T08:45:31.001Z,4.30
2023-05-15T08:47:59.356Z,4.07
2023-05-15T08:50:26.837Z,4.90
2023-05-15T08:52:58.170Z,7.17
2023-05-15T08:55:25.545Z,9.63
2023-05-15T08:57:54.381Z,5.10
2023-05-15T09:00:22.643Z,4.30
2023-05-15T09:02:49.607Z,6.17
2023-05-15T09:05:16.441Z,3.87
2023-05-15T09:07:45.607Z,5.70
2023-05-15T09:10:13.670Z,4.17
2023-05-15T09:12:44.427Z,3.80
2023-05-15T09:15:17.836Z,4.57
2023-05-15T09:17:45.748Z,4.23
2023-05-15T09:20:32.281Z,4.37
2023-05-15T09:23:01.931Z,3.90
2023-05-15T09:25:42.678Z,3.83
2023-05-15T09:28:11.288Z,3.43
2023-05-15T09:30:39.111Z,3.07
2023-05-15T09:33:06.094Z,3.40
2023-05-15T09:35:38.226Z,4.20
2023-05-15T09:38:10.508Z,3.33
2023-05-15T09:40:38.832Z,3.27
2023-05-15T09:43:05.607Z,3.20
2023-05-15T09:45:33.911Z,3.30
2023-05-15T09:48:04.697Z,3.60
2023-05-15T09:50:39.734Z,3.60
2023-05-15T09:53:06.688Z,4.10
2023-05-15T09:55:37.060Z,3.20
2023-05-15T09:58:09.794Z,3.10
2023-05-15T10:00:47.843Z,3.50
2023-05-15T10:03:17.574Z,4.10
2023-05-15T10:05:44.684Z,3.33
2023-05-15T10:08:12.820Z,2.97
2023-05-15T10:10:39.801Z,3.30
2023-05-15T10:13:08.476Z,3.10
2023-05-15T10:15:35.658Z,4.13
2023-05-15T10:18:04.873Z,2.83
2023-05-15T10:20:35.688Z,3.37
2023-05-15T10:23:05.069Z,3.67
2023-05-15T10:25:52.951Z,3.10
2023-05-15T10:28:20.380Z,2.80
2023-05-15T10:30:48.257Z,3.13
2023-05-15T10:33:15.874Z,3.47
2023-05-15T10:35:43.289Z,3.90
2023-05-15T10:38:11.426Z,3.43
2023-05-15T10:40:41.094Z,3.27
2023-05-15T10:43:12.064Z,2.70
2023-05-15T10:45:39.706Z,3.00
2023-05-15T10:48:08.532Z,2.80
2023-05-15T10:50:37.564Z,3.80
2023-05-15T10:53:04.497Z,3.60
2023-05-15T10:55:31.479Z,3.40
2023-05-15T10:57:58.453Z,3.03
2023-05-15T11:00:31.358Z,3.80
2023-05-15T11:02:58.819Z,2.90
2023-05-15T11:05:26.509Z,3.33
2023-05-15T11:08:25.912Z,3.10
2023-05-15T11:10:53.641Z,2.47
2023-05-15T11:13:21.024Z,2.33
2023-05-15T11:15:48.936Z,2.30
2023-05-15T11:18:16.219Z,2.90
2023-05-15T11:20:52.106Z,2.93
2023-05-15T11:23:23.407Z,2.70
2023-05-15T11:25:55.822Z,2.50
2023-05-15T11:28:24.049Z,3.00
2023-05-15T11:30:52.860Z,2.93
2023-05-15T11:33:21.167Z,2.70
2023-05-15T11:35:48.984Z,2.90
2023-05-15T11:38:25.193Z,2.50
2023-05-15T11:40:58.366Z,2.43
2023-05-15T11:43:29.972Z,3.07
2023-05-15T11:46:11.093Z,2.63
2023-05-15T11:48:40.479Z,2.63
2023-05-15T11:51:21.765Z,2.13
2023-05-15T11:53:53.198Z,2.03
2023-05-15T11:56:25.755Z,1.70
2023-05-15T11:58:57.255Z,2.00
2023-05-15T12:01:24.623Z,1.63
2023-05-15T12:03:54.054Z,1.60
2023-05-15T12:06:21.264Z,1.60
2023-05-15T12:08:52.528Z,1.63
2023-05-15T12:11:23.252Z,1.67
2023-05-15T12:13:53.994Z,1.57
2023-05-15T12:16:26.307Z,1.47
2023-05-15T12:18:53.670Z,1.60
2023-05-15T12:21:20.945Z,1.73
2023-05-15T12:24:07.148Z,2.03
2023-05-15T12:26:35.854Z,2.47
2023-05-15T12:29:04.103Z,1.77
2023-05-15T12:31:31.166Z,2.13
2023-05-15T12:33:58.480Z,2.57
2023-05-15T12:36:29.758Z,2.87
2023-05-15T12:38:57.866Z,3.90
2023-05-15T12:41:29.198Z,2.70
2023-05-15T12:43:56.009Z,3.23
2023-05-15T12:46:24.489Z,3.07
2023-05-15T12:48:52.163Z,3.00
2023-05-15T12:51:18.972Z,2.60
2023-05-15T12:53:48.283Z,2.60
2023-05-15T12:56:18.149Z,2.50
2023-05-15T12:58:45.388Z,2.30
2023-05-15T13:01:12.587Z,2.20
2023-05-15T13:03:42.199Z,2.53
2023-05-15T13:06:10.569Z,2.20
2023-05-15T13:08:41.886Z,2.70
2023-05-15T13:11:13.877Z,2.33
2023-05-15T13:13:49.592Z,2.20
2023-05-15T13:16:29.353Z,2.30
2023-05-15T13:18:58.442Z,2.50
2023-05-15T13:21:26.056Z,2.40
2023-05-15T13:23:53.128Z,2.83
2023-05-15T13:26:20.223Z,3.00
2023-05-15T13:28:47.105Z,2.53
2023-05-15T13:31:14.103Z,3.07
2023-05-15T13:33:41.764Z,2.53
2023-05-15T13:36:22.013Z,2.47
2023-05-15T13:38:48.917Z,2.90
2023-05-15T13:41:15.800Z,2.80
2023-05-15T13:43:42.624Z,2.77
2023-05-15T13:46:09.567Z,2.90
2023-05-15T13:48:36.280Z,2.47
2023-05-15T13:51:03.282Z,2.90
2023-05-15T13:53:30.067Z,3.10
2023-05-15T13:55:57.085Z,3.30
2023-05-15T13:58:26.608Z,3.27
2023-05-15T14:00:53.591Z,3.10
2023-05-15T14:03:20.688Z,3.23
2023-05-15T14:05:49.723Z,2.70
2023-05-15T14:08:16.549Z,3.77
2023-05-15T14:10:44.558Z,2.20
2023-05-15T14:13:11.271Z,2.37
2023-05-15T14:15:38.116Z,2.77
2023-05-15T14:18:04.879Z,2.40
2023-05-15T14:20:32.008Z,2.33
2023-05-15T14:22:58.782Z,2.33
2023-05-15T14:25:25.865Z,2.20
2023-05-15T14:27:52.892Z,2.50
2023-05-15T14:30:21.592Z,2.20
2023-05-15T14:32:48.417Z,2.77
2023-05-15T14:35:15.541Z,3.30
2023-05-15T14:37:43.336Z,2.57
2023-05-15T14:40:11.043Z,2.50
2023-05-15T14:42:37.866Z,2.43
2023-05-15T14:45:05.005Z,2.60
2023-05-15T14:47:32.102Z,2.53
2023-05-15T14:49:59.019Z,2.50
2023-05-15T14:52:25.832Z,2.30
2023-05-15T14:55:04.998Z,2.50
2023-05-15T14:57:35.119Z,2.33
2023-05-15T15:00:02.235Z,2.20
2023-05-15T15:02:29.119Z,2.50
2023-05-15T15:04:56.000Z,2.43
2023-05-15T15:07:22.741Z,2.53
2023-05-15T15:09:49.814Z,2.53
2023-05-15T15:12:16.682Z,2.83
2023-05-15T15:14:43.465Z,2.57
2023-05-15T15:17:10.190Z,2.03
2023-05-15T15:19:36.962Z,3.17
2023-05-15T15:22:03.792Z,2.33
2023-05-15T15:24:30.783Z,2.27
2023-05-15T15:26:57.505Z,2.33
2023-05-15T15:29:24.326Z,3.20
2023-05-15T15:31:51.132Z,2.50
2023-05-15T15:34:17.951Z,3.00
2023-05-15T15:36:45.059Z,3.13
2023-05-15T15:39:13.073Z,2.70
2023-05-15T15:41:39.978Z,2.63
2023-05-15T15:44:06.716Z,2.87
2023-05-15T15:46:33.532Z,2.30
2023-05-15T15:49:00.457Z,2.40
2023-05-15T15:51:27.288Z,2.83
2023-05-15T15:53:54.122Z,2.30
2023-05-15T15:56:21.428Z,2.07
2023-05-15T15:58:48.325Z,1.80
2023-05-15T16:01:15.171Z,2.27
2023-05-15T16:03:42.205Z,2.30
2023-05-15T16:06:08.991Z,2.37
2023-05-15T16:08:35.830Z,2.00
2023-05-15T16:11:02.779Z,2.60
2023-05-15T16:13:29.747Z,2.77
2023-05-15T16:15:56.808Z,2.20
2023-05-15T16:18:23.639Z,2.30
2023-05-15T16:20:50.443Z,3.00
2023-05-15T16:23:17.335Z,4.17
2023-05-15T16:25:44.968Z,3.53
2023-05-15T16:28:12.060Z,2.90
2023-05-15T16:30:48.207Z,2.60
2023-05-15T16:33:17.866Z,2.30
2023-05-15T16:35:45.465Z,2.77
2023-05-15T16:38:12.624Z,2.37
2023-05-15T16:40:39.461Z,2.40
2023-05-15T16:43:07.175Z,2.30
2023-05-15T16:45:34.091Z,2.50
2023-05-15T16:48:01.054Z,2.90
2023-05-15T16:50:28.031Z,2.60
2023-05-15T16:52:54.922Z,2.87
2023-05-15T16:55:21.785Z,3.97
2023-05-15T16:57:48.713Z,3.50
2023-05-15T17:00:16.670Z,3.47
2023-05-15T17:02:43.980Z,3.37
2023-05-15T17:05:11.646Z,3.23
2023-05-15T17:07:39.038Z,4.00
2023-05-15T17:10:07.209Z,3.20
2023-05-15T17:12:34.557Z,3.80
2023-05-15T17:15:01.753Z,3.17
2023-05-15T17:17:28.615Z,3.10
2023-05-15T17:19:56.394Z,3.10
2023-05-15T17:22:23.835Z,2.97
2023-05-15T17:24:52.176Z,3.50
2023-05-15T17:27:19.697Z,3.60
2023-05-15T17:29:47.160Z,3.90
2023-05-15T17:32:14.702Z,3.13
2023-05-15T17:34:41.624Z,3.40
2023-05-15T17:37:09.062Z,3.57
2023-05-15T17:39:36.310Z,3.67
2023-05-15T17:42:03.629Z,3.33
2023-05-15T17:44:31.151Z,2.73
2023-05-15T17:46:58.810Z,3.53
2023-05-15T17:49:26.321Z,3.40
2023-05-15T17:51:53.972Z,3.50
2023-05-15T17:54:20.809Z,2.90
2023-05-15T17:56:48.104Z,3.50
2023-05-15T17:59:15.378Z,3.43
2023-05-15T18:01:42.371Z,3.20
2023-05-15T18:04:10.174Z,3.30
2023-05-15T18:06:37.208Z,3.40
2023-05-15T18:09:05.078Z,3.03
2023-05-15T18:11:31.980Z,3.00
2023-05-15T18:13:58.839Z,3.03
2023-05-15T18:16:25.908Z,3.30
2023-05-15T18:18:52.862Z,3.30
2023-05-15T18:21:20.372Z,3.00
2023-05-15T18:23:47.419Z,3.23
2023-05-15T18:26:14.186Z,3.53
2023-05-15T18:28:41.591Z,3.63
2023-05-15T18:31:08.532Z,3.70
2023-05-15T18:33:35.319Z,3.70
2023-05-15T18:36:02.272Z,3.30
2023-05-15T18:38:29.164Z,3.33
2023-05-15T18:40:55.902Z,4.30
2023-05-15T18:43:23.209Z,4.13
2023-05-15T18:45:50.238Z,4.10
2023-05-15T18:48:17.242Z,3.90
2023-05-15T18:50:44.043Z,3.83
2023-05-15T18:53:10.882Z,4.30
2023-05-15T18:55:39.133Z,3.63
2023-05-15T18:58:06.100Z,3.60
2023-05-15T19:00:38.577Z,2.80
2023-05-15T19:03:09.008Z,2.90
2023-05-15T19:05:35.885Z,3.00
2023-05-15T19:08:03.177Z,3.70
2023-05-15T19:10:30.566Z,3.67
2023-05-15T19:12:57.937Z,3.87
2023-05-15T19:15:25.576Z,3.77
2023-05-15T19:17:52.662Z,4.40
2023-05-15T19:20:20.600Z,3.73
2023-05-15T19:22:47.413Z,3.97
2023-05-15T19:25:14.210Z,3.80
2023-05-15T19:27:41.249Z,4.00
2023-05-15T19:30:09.863Z,3.90
2023-05-15T19:32:37.442Z,3.90
2023-05-15T19:35:05.304Z,3.30
2023-05-15T19:37:32.010Z,3.73
2023-05-15T19:39:58.827Z,3.73
2023-05-15T19:42:26.183Z,4.07
2023-05-15T19:44:52.940Z,4.00
2023-05-15T19:47:19.715Z,3.60
2023-05-15T19:49:46.635Z,4.07
2023-05-15T19:52:13.372Z,3.90
2023-05-15T19:54:40.159Z,4.50
2023-05-15T19:57:06.942Z,5.07
2023-05-15T19:59:33.734Z,4.13
2023-05-15T20:02:01.585Z,4.23
2023-05-15T20:04:29.758Z,4.10
2023-05-15T20:06:56.631Z,3.77
2023-05-15T20:09:23.415Z,3.77
2023-05-15T20:11:50.296Z,4.57
2023-05-15T20:14:17.110Z,4.43
2023-05-15T20:16:43.968Z,4.60
2023-05-15T20:19:11.326Z,3.87
2023-05-15T20:21:39.584Z,4.30
2023-05-15T20:24:06.981Z,4.40
2023-05-15T20:26:35.980Z,4.63
2023-05-15T20:29:03.498Z,5.10
2023-05-15T20:31:30.508Z,4.03
2023-05-15T20:33:57.327Z,4.30
2023-05-15T20:36:25.614Z,5.00
2023-05-15T20:38:53.142Z,4.50
2023-05-15T20:41:22.828Z,4.17
2023-05-15T20:43:50.210Z,5.00
2023-05-15T20:46:17.193Z,4.93
2023-05-15T20:48:44.468Z,5.30
2023-05-15T20:51:11.225Z,4.67
2023-05-15T20:53:38.324Z,4.77
2023-05-15T20:56:05.388Z,5.07
2023-05-15T20:58:32.140Z,4.50
2023-05-15T21:01:01.705Z,4.33
2023-05-15T21:03:29.526Z,4.90
2023-05-15T21:05:57.522Z,5.10
2023-05-15T21:08:24.617Z,4.37
2023-05-15T21:10:53.211Z,3.60
2023-05-15T21:13:20.133Z,5.60
2023-05-15T21:15:47.188Z,5.27
2023-05-15T21:18:14.153Z,4.50
2023-05-15T21:20:41.740Z,4.83
2023-05-15T21:23:08.713Z,5.40
2023-05-15T21:25:35.628Z,4.80
2023-05-15T21:28:02.863Z,5.80
2023-05-15T21:30:29.697Z,4.67
2023-05-15T21:32:56.575Z,4.70
2023-05-15T21:35:25.086Z,5.17
2023-05-15T21:37:51.886Z,5.20
2023-05-15T21:40:19.062Z,5.20
2023-05-15T21:42:45.907Z,4.60
2023-05-15T21:45:12.877Z,6.20
2023-05-15T21:47:39.701Z,5.37
2023-05-15T21:50:07.334Z,5.47
2023-05-15T21:52:34.105Z,5.20
2023-05-15T21:55:00.842Z,4.70
2023-05-15T21:57:27.697Z,4.67
2023-05-15T21:59:54.566Z,5.10
2023-05-15T22:02:22.561Z,5.27
2023-05-15T22:04:49.436Z,4.90
2023-05-15T22:07:16.524Z,5.27
2023-05-15T22:09:44.116Z,4.53
2023-05-15T22:12:11.097Z,4.70
2023-05-15T22:14:41.765Z,6.07
2023-05-15T22:17:14.116Z,5.53
2023-05-15T22:19:45.789Z,4.60
2023-05-15T22:22:12.790Z,4.77
2023-05-15T22:24:39.556Z,5.10
2023-05-15T22:27:06.337Z,6.00
2023-05-15T22:29:34.125Z,5.40
2023-05-15T22:32:01.247Z,4.30
2023-05-15T22:34:29.913Z,5.13
2023-05-15T22:36:56.972Z,5.50
2023-05-15T22:39:23.736Z,5.17
2023-05-15T22:41:50.577Z,5.80
2023-05-15T22:44:17.510Z,4.70
2023-05-15T22:46:44.255Z,5.87
2023-05-15T22:49:23.446Z,5.53
2023-05-15T22:51:50.553Z,5.50
2023-05-15T22:54:21.608Z,5.80
2023-05-15T22:56:50.153Z,5.83
2023-05-15T22:59:17.257Z,4.90
2023-05-15T23:01:44.781Z,5.33
2023-05-15T23:04:11.997Z,5.10
2023-05-15T23:06:40.233Z,5.27
2023-05-15T23:09:07.804Z,5.83
2023-05-15T23:11:35.503Z,5.93
2023-05-15T23:14:02.933Z,5.00
2023-05-15T23:16:31.037Z,5.80
2023-05-15T23:18:58.032Z,4.80
2023-05-15T23:21:25.394Z,5.67
2023-05-15T23:23:52.348Z,5.63
2023-05-15T23:26:19.355Z,5.80
2023-05-15T23:28:46.518Z,6.13
2023-05-15T23:31:14.056Z,5.90
2023-05-15T23:33:41.118Z,5.70
2023-05-15T23:36:08.053Z,6.10
2023-05-15T23:38:34.853Z,6.40
2023-05-15T23:41:01.807Z,6.37
2023-05-15T23:43:29.034Z,6.27
2023-05-15T23:45:55.929Z,5.70
2023-05-15T23:48:22.625Z,6.83
2023-05-15T23:50:49.464Z,6.10
2023-05-15T23:53:16.256Z,6.70
2023-05-15T23:55:43.080Z,6.67
2023-05-15T23:58:09.895Z,6.07
